• Join FlightAware (Why Join?)
  • Login
  • US Flag 
08:45PM EDT


 

Airport Tracker/Info


-or-


 

Live Flight TrackerFlight Track Log ✈ N521PM ✈ 11-Aug-2013 ✈ KOJC - KMTO

Flight Track Log - Related Links

Times and Time Zones

All times are in EDT time to prevent confusion due to time zone crossing. See the N521PM flight status page for this flight to view local times or setup timezone preferences in your user account.

Time Position Orientation Groundspeed Altitude Reporting Facility
EDT Latitude Longitude Course Direction KTS MPH feet Rate Location/Type
04:58PM 38.8167 -94.7333 159° South 142 163 2,100  Level Kansas City TRACON
04:59PM 38.7833 -94.7167 159° South 161 185 4,000 960 Climbing Kansas City TRACON
05:00PM 38.7833 -94.6669 90° East 199 229 4,100 60 Climbing Kansas City Center
05:01PM 38.8083 -94.5958 66° East 226 260 4,200 480 Climbing Kansas City Center
05:02PM 38.8503 -94.5256 53° Northeast 222 255 5,100 1,080 Climbing Kansas City Center
05:03PM 38.8839 -94.4672 53° Northeast 215 247 6,500 1,680 Climbing Kansas City Center
05:04PM 38.9150 -94.4239 47° Northeast 150 173 8,700 1,680 Climbing Kansas City Center
05:05PM 38.9414 -94.3758 55° Northeast 168 193 10,000 660 Climbing Kansas City Center
05:06PM 38.9794 -94.2986 58° Northeast 228 262 10,100 240 Climbing Kansas City Center
05:07PM 39.0169 -94.2308 55° Northeast 242 278 10,600 600 Climbing Kansas City Center
05:08PM 39.0453 -94.1511 65° Northeast 230 265 11,400 780 Climbing Kansas City Center
05:09PM 39.0397 -94.0758 95° East 222 255 12,300 840 Climbing Kansas City Center
05:10PM 39.0350 -94.0019 95° East 218 251 13,200 840 Climbing Kansas City Center
05:11PM 39.0269 -93.9142 97° East 221 254 14,100 900 Climbing Kansas City Center
05:12PM 39.0272 -93.8378 90° East 223 257 15,100 960 Climbing Kansas City Center
05:13PM 39.0372 -93.7519 81° East 217 250 16,100 720 Climbing Kansas City Center
05:14PM 39.0478 -93.6714 80° East 236 272 16,700 720 Climbing Kansas City Center
05:15PM 39.0614 -93.5756 80° East 242 278 17,600 720 Climbing Kansas City Center
05:16PM 39.0711 -93.4953 81° East 239 275 18,300 720 Climbing Kansas City Center
05:17PM 39.0822 -93.4078 81° East 234 269 19,200 720 Climbing Kansas City Center
05:18PM 39.0883 -93.3256 85° East 233 268 19,900 600 Climbing Kansas City Center
05:19PM 39.0953 -93.2414 84° East 236 272 20,500 660 Climbing Kansas City Center
05:20PM 39.1061 -93.1383 82° East 241 277 21,300 720 Climbing Kansas City Center
05:21PM 39.1150 -93.0531 82° East 243 280 22,000 540 Climbing Kansas City Center
05:22PM 39.1222 -92.9664 84° East 244 281 22,500 660 Climbing Kansas City Center
05:23PM 39.1311 -92.8819 82° East 243 280 23,400 660 Climbing Kansas City Center
05:25PM 39.1397 -92.8000 82° East 239 275 23,900 480 Climbing Kansas City Center
05:26PM 39.1472 -92.7122 84° East 236 272 24,400 480 Climbing Kansas City Center
05:27PM 39.1569 -92.6067 83° East 242 278 24,900 360 Climbing Kansas City Center
05:28PM 39.1647 -92.5153 84° East 249 287 25,200 60 Climbing Kansas City Center
05:29PM 39.1725 -92.4219 84° East 256 295 25,100  Descending Kansas City Center
05:30PM 39.1825 -92.3231 83° East 267 307 25,200  Climbing Kansas City Center
05:31PM 39.1922 -92.2242 83° East 274 315 25,200  Level Kansas City Center
05:32PM 39.2014 -92.1228 83° East 279 321 25,200  Level Kansas City Center
05:33PM 39.2106 -92.0233 83° East 279 321 25,200  Level Kansas City Center
05:34PM 39.2200 -91.9025 84° East 280 322 25,200  Level Kansas City Center
05:35PM 39.2286 -91.8033 84° East 279 321 25,200  Level Kansas City Center
05:36PM 39.2372 -91.7033 84° East 279 321 25,200  Level Kansas City Center
05:37PM 39.2456 -91.5972 84° East 279 321 25,200  Level Kansas City Center
05:38PM 39.2550 -91.4992 83° East 277 319 25,200  Level Kansas City Center
05:39PM 39.2622 -91.4006 85° East 276 318 25,200  Level Kansas City Center
05:40PM 39.2706 -91.3003 84° East 279 321 25,200  Level Kansas City Center
05:41PM 39.2781 -91.2011 84° East 279 321 25,200  Level Kansas City Center
05:42PM 39.2869 -91.1008 83° East 280 322 25,200  Level Kansas City Center
05:43PM 39.2964 -90.9814 84° East 280 322 25,200  Level Kansas City Center
05:44PM 39.3047 -90.8822 84° East 279 321 25,200  Level Kansas City Center
05:45PM 39.3125 -90.7819 84° East 280 322 25,200 -60 Level Kansas City Center
05:46PM 39.3192 -90.6831 85° East 278 320 25,100 -60 Descending Kansas City Center
05:47PM 39.3247 -90.5828 86° East 278 320 25,100  Level Kansas City Center
05:48PM 39.3358 -90.4831 82° East 280 322 25,100  Level Kansas City Center
05:49PM 39.3425 -90.3842 85° East 278 320 25,200  Climbing Kansas City Center
05:50PM 39.3514 -90.2639 85° East 279 321 25,100 -480 Descending Kansas City Center
05:51PM 39.3581 -90.1592 85° East 286 329 24,200 -960 Descending Kansas City Center
05:52PM 39.3650 -90.0472 85° East 302 348 23,100 -1,200 Descending Kansas City Center
05:53PM 39.3736 -89.9356 84° East 309 356 21,800 -1,920 Descending Kansas City Center
05:54PM 39.3822 -89.8261 84° East 308 354 19,200 -2,700 Descending Kansas City Center
05:55PM 39.3897 -89.7183 85° East 304 350 16,300 -2,460 Descending Kansas City Center
05:57PM 39.3947 -89.6111 87° East 301 346 14,100 -2,040 Descending Kansas City Center
05:58PM 39.4044 -89.4892 84° East 291 335 12,100 -1,500 Descending Kansas City Center
05:59PM 39.4125 -89.3903 84° East 282 325 11,100 -780 Descending Kansas City Center
06:00PM 39.4181 -89.3008 85° East 262 302 10,600 -1,320 Descending Kansas City Center
06:01PM 39.4217 -89.2092 87° East 256 295 8,400 -2,280 Descending Kansas City Center
06:02PM 39.4278 -89.1053 86° East 260 299 6,000 -1,680 Descending Kansas City Center
06:03PM 39.4350 -89.0269 83° East 235 270 5,000 -540 Descending Kansas City Center
06:04PM 39.4386 -88.9575 86° East 207 238 5,000 -360 Level Kansas City Center
06:05PM 39.4419 -88.8889 86° East 196 226 4,300 -420 Descending Kansas City Center
06:06PM 39.4458 -88.8147 86° East 201 231 4,200  Descending Kansas City Center
06:07PM 39.4506 -88.7417 85° East 203 234 4,300  Climbing Kansas City Center
06:08PM 39.4572 -88.6517 84° East 207 238 4,300  Level Kansas City Center
06:09PM 39.4706 -88.5828 76° East 208 239 4,300  Level Kansas City Center